sensor_id;sensor_type;location;lat;lon;timestamp;P1;durP1;ratioP1;P2;durP2;ratioP2
44810;SDS011;30526;52.184;4.476;2023-04-25T00:01:40;12.35;;;2.83;;
44810;SDS011;30526;52.184;4.476;2023-04-25T00:04:06;14.93;;;3.88;;
44810;SDS011;30526;52.184;4.476;2023-04-25T00:06:34;16.10;;;2.90;;
44810;SDS011;30526;52.184;4.476;2023-04-25T00:09:01;15.55;;;3.15;;
44810;SDS011;30526;52.184;4.476;2023-04-25T00:11:28;9.45;;;1.83;;
44810;SDS011;30526;52.184;4.476;2023-04-25T00:13:55;17.15;;;2.05;;
44810;SDS011;30526;52.184;4.476;2023-04-25T00:16:22;13.20;;;1.95;;
44810;SDS011;30526;52.184;4.476;2023-04-25T00:18:48;13.65;;;1.98;;
44810;SDS011;30526;52.184;4.476;2023-04-25T00:21:18;23.73;;;3.08;;
44810;SDS011;30526;52.184;4.476;2023-04-25T00:23:44;14.23;;;2.67;;
44810;SDS011;30526;52.184;4.476;2023-04-25T00:26:11;15.23;;;2.50;;
44810;SDS011;30526;52.184;4.476;2023-04-25T00:28:37;12.07;;;2.15;;
44810;SDS011;30526;52.184;4.476;2023-04-25T00:31:03;11.25;;;2.42;;
44810;SDS011;30526;52.184;4.476;2023-04-25T00:33:29;17.00;;;2.78;;
44810;SDS011;30526;52.184;4.476;2023-04-25T00:35:55;21.55;;;3.38;;
44810;SDS011;30526;52.184;4.476;2023-04-25T00:38:21;17.35;;;3.38;;
44810;SDS011;30526;52.184;4.476;2023-04-25T00:40:47;16.63;;;3.00;;
44810;SDS011;30526;52.184;4.476;2023-04-25T00:43:13;14.38;;;2.30;;
44810;SDS011;30526;52.184;4.476;2023-04-25T00:45:40;18.98;;;3.13;;
44810;SDS011;30526;52.184;4.476;2023-04-25T00:48:06;12.60;;;2.47;;
44810;SDS011;30526;52.184;4.476;2023-04-25T00:50:33;15.70;;;2.78;;
44810;SDS011;30526;52.184;4.476;2023-04-25T00:52:59;11.65;;;1.90;;
44810;SDS011;30526;52.184;4.476;2023-04-25T00:55:26;12.68;;;1.98;;
44810;SDS011;30526;52.184;4.476;2023-04-25T00:57:52;9.65;;;2.78;;
44810;SDS011;30526;52.184;4.476;2023-04-25T01:00:18;22.70;;;2.70;;
44810;SDS011;30526;52.184;4.476;2023-04-25T01:02:44;10.13;;;2.47;;
44810;SDS011;30526;52.184;4.476;2023-04-25T01:05:10;12.85;;;2.47;;
44810;SDS011;30526;52.184;4.476;2023-04-25T01:07:37;15.65;;;2.60;;
44810;SDS011;30526;52.184;4.476;2023-04-25T01:10:04;18.05;;;2.45;;
44810;SDS011;30526;52.184;4.476;2023-04-25T01:12:31;13.20;;;2.35;;
44810;SDS011;30526;52.184;4.476;2023-04-25T01:14:57;10.25;;;2.15;;
44810;SDS011;30526;52.184;4.476;2023-04-25T01:17:23;13.60;;;2.28;;
44810;SDS011;30526;52.184;4.476;2023-04-25T01:19:49;17.70;;;2.22;;
44810;SDS011;30526;52.184;4.476;2023-04-25T01:22:16;15.27;;;2.03;;
44810;SDS011;30526;52.184;4.476;2023-04-25T01:24:43;14.32;;;2.78;;
44810;SDS011;30526;52.184;4.476;2023-04-25T01:27:09;18.50;;;1.88;;
44810;SDS011;30526;52.184;4.476;2023-04-25T01:29:36;12.55;;;1.77;;
44810;SDS011;30526;52.184;4.476;2023-04-25T01:32:02;8.27;;;2.70;;
44810;SDS011;30526;52.184;4.476;2023-04-25T01:34:28;14.95;;;2.05;;
44810;SDS011;30526;52.184;4.476;2023-04-25T01:36:54;6.88;;;1.95;;
44810;SDS011;30526;52.184;4.476;2023-04-25T01:39:20;15.50;;;2.42;;
44810;SDS011;30526;52.184;4.476;2023-04-25T01:41:46;12.45;;;2.03;;
44810;SDS011;30526;52.184;4.476;2023-04-25T01:44:13;8.85;;;1.85;;
44810;SDS011;30526;52.184;4.476;2023-04-25T01:46:39;15.90;;;2.72;;
44810;SDS011;30526;52.184;4.476;2023-04-25T01:49:05;14.15;;;2.25;;
44810;SDS011;30526;52.184;4.476;2023-04-25T01:51:31;16.05;;;2.25;;
44810;SDS011;30526;52.184;4.476;2023-04-25T01:53:57;19.13;;;2.22;;
44810;SDS011;30526;52.184;4.476;2023-04-25T01:56:23;15.98;;;2.58;;
44810;SDS011;30526;52.184;4.476;2023-04-25T01:58:49;12.57;;;2.05;;
44810;SDS011;30526;52.184;4.476;2023-04-25T02:01:16;10.25;;;2.10;;
44810;SDS011;30526;52.184;4.476;2023-04-25T02:03:41;15.05;;;2.38;;
44810;SDS011;30526;52.184;4.476;2023-04-25T02:06:07;10.82;;;1.83;;
44810;SDS011;30526;52.184;4.476;2023-04-25T02:08:33;13.27;;;2.00;;
44810;SDS011;30526;52.184;4.476;2023-04-25T02:10:59;11.45;;;1.77;;
44810;SDS011;30526;52.184;4.476;2023-04-25T02:13:25;13.10;;;1.77;;
44810;SDS011;30526;52.184;4.476;2023-04-25T02:15:51;14.82;;;1.63;;
44810;SDS011;30526;52.184;4.476;2023-04-25T02:18:17;4.78;;;1.50;;
44810;SDS011;30526;52.184;4.476;2023-04-25T02:20:45;7.90;;;1.52;;
44810;SDS011;30526;52.184;4.476;2023-04-25T02:23:11;12.82;;;1.67;;
44810;SDS011;30526;52.184;4.476;2023-04-25T02:25:37;12.27;;;1.70;;
44810;SDS011;30526;52.184;4.476;2023-04-25T02:28:03;13.13;;;1.73;;
44810;SDS011;30526;52.184;4.476;2023-04-25T02:30:29;13.90;;;1.95;;
44810;SDS011;30526;52.184;4.476;2023-04-25T02:32:55;18.73;;;2.20;;
44810;SDS011;30526;52.184;4.476;2023-04-25T02:35:21;13.23;;;1.80;;
44810;SDS011;30526;52.184;4.476;2023-04-25T02:37:47;14.38;;;1.88;;
44810;SDS011;30526;52.184;4.476;2023-04-25T02:40:13;10.13;;;1.88;;
44810;SDS011;30526;52.184;4.476;2023-04-25T02:42:39;10.38;;;1.92;;
44810;SDS011;30526;52.184;4.476;2023-04-25T02:45:05;11.77;;;2.05;;
44810;SDS011;30526;52.184;4.476;2023-04-25T02:47:31;9.05;;;1.90;;
44810;SDS011;30526;52.184;4.476;2023-04-25T02:49:57;13.95;;;1.73;;
44810;SDS011;30526;52.184;4.476;2023-04-25T02:52:23;14.75;;;2.10;;
44810;SDS011;30526;52.184;4.476;2023-04-25T02:54:50;13.20;;;2.07;;
44810;SDS011;30526;52.184;4.476;2023-04-25T02:57:16;7.78;;;1.88;;
44810;SDS011;30526;52.184;4.476;2023-04-25T02:59:42;15.98;;;1.92;;
44810;SDS011;30526;52.184;4.476;2023-04-25T03:02:08;12.50;;;2.22;;
44810;SDS011;30526;52.184;4.476;2023-04-25T03:04:34;16.58;;;2.60;;
44810;SDS011;30526;52.184;4.476;2023-04-25T03:07:00;18.58;;;2.58;;
44810;SDS011;30526;52.184;4.476;2023-04-25T03:09:26;19.52;;;2.70;;
44810;SDS011;30526;52.184;4.476;2023-04-25T03:11:52;17.52;;;2.75;;
44810;SDS011;30526;52.184;4.476;2023-04-25T03:14:18;17.88;;;2.30;;
44810;SDS011;30526;52.184;4.476;2023-04-25T03:16:44;11.88;;;1.85;;
44810;SDS011;30526;52.184;4.476;2023-04-25T03:19:10;18.40;;;2.42;;
44810;SDS011;30526;52.184;4.476;2023-04-25T03:21:36;17.13;;;2.08;;
44810;SDS011;30526;52.184;4.476;2023-04-25T03:24:03;17.20;;;2.10;;
44810;SDS011;30526;52.184;4.476;2023-04-25T03:26:29;11.48;;;1.83;;
44810;SDS011;30526;52.184;4.476;2023-04-25T03:28:55;20.85;;;2.42;;
44810;SDS011;30526;52.184;4.476;2023-04-25T03:31:21;13.80;;;2.05;;
44810;SDS011;30526;52.184;4.476;2023-04-25T03:33:47;16.65;;;2.35;;
44810;SDS011;30526;52.184;4.476;2023-04-25T03:36:14;11.20;;;2.08;;
44810;SDS011;30526;52.184;4.476;2023-04-25T03:38:40;11.65;;;1.98;;
44810;SDS011;30526;52.184;4.476;2023-04-25T03:41:08;17.60;;;1.88;;
44810;SDS011;30526;52.184;4.476;2023-04-25T03:43:34;19.70;;;2.33;;
44810;SDS011;30526;52.184;4.476;2023-04-25T03:46:00;11.57;;;1.92;;
44810;SDS011;30526;52.184;4.476;2023-04-25T03:48:26;10.88;;;1.58;;
44810;SDS011;30526;52.184;4.476;2023-04-25T03:50:53;12.50;;;1.98;;
44810;SDS011;30526;52.184;4.476;2023-04-25T03:53:19;10.25;;;1.50;;
44810;SDS011;30526;52.184;4.476;2023-04-25T03:55:45;11.10;;;2.22;;
44810;SDS011;30526;52.184;4.476;2023-04-25T03:58:11;8.05;;;1.88;;
44810;SDS011;30526;52.184;4.476;2023-04-25T04:00:37;12.20;;;1.95;;
44810;SDS011;30526;52.184;4.476;2023-04-25T04:03:03;14.35;;;2.47;;
44810;SDS011;30526;52.184;4.476;2023-04-25T04:05:29;20.65;;;2.13;;
44810;SDS011;30526;52.184;4.476;2023-04-25T04:07:56;12.35;;;2.30;;
44810;SDS011;30526;52.184;4.476;2023-04-25T04:10:22;10.68;;;1.95;;
44810;SDS011;30526;52.184;4.476;2023-04-25T04:12:48;16.42;;;2.40;;
44810;SDS011;30526;52.184;4.476;2023-04-25T04:15:14;14.20;;;1.75;;
44810;SDS011;30526;52.184;4.476;2023-04-25T04:17:40;8.13;;;1.60;;
44810;SDS011;30526;52.184;4.476;2023-04-25T04:20:06;10.80;;;1.98;;
44810;SDS011;30526;52.184;4.476;2023-04-25T04:22:33;9.80;;;1.73;;
44810;SDS011;30526;52.184;4.476;2023-04-25T04:24:59;9.73;;;1.77;;
44810;SDS011;30526;52.184;4.476;2023-04-25T04:27:25;9.02;;;1.92;;
44810;SDS011;30526;52.184;4.476;2023-04-25T04:29:53;8.10;;;1.80;;
44810;SDS011;30526;52.184;4.476;2023-04-25T04:32:19;11.13;;;1.98;;
44810;SDS011;30526;52.184;4.476;2023-04-25T04:34:45;11.00;;;1.75;;
44810;SDS011;30526;52.184;4.476;2023-04-25T04:37:12;9.57;;;1.67;;
44810;SDS011;30526;52.184;4.476;2023-04-25T04:39:38;12.48;;;2.25;;
44810;SDS011;30526;52.184;4.476;2023-04-25T04:42:04;15.70;;;2.40;;
44810;SDS011;30526;52.184;4.476;2023-04-25T04:44:30;7.90;;;1.60;;
44810;SDS011;30526;52.184;4.476;2023-04-25T04:46:57;6.55;;;1.13;;
44810;SDS011;30526;52.184;4.476;2023-04-25T04:49:23;9.10;;;1.90;;
44810;SDS011;30526;52.184;4.476;2023-04-25T04:51:49;9.38;;;1.92;;
44810;SDS011;30526;52.184;4.476;2023-04-25T04:54:15;16.95;;;1.67;;
44810;SDS011;30526;52.184;4.476;2023-04-25T04:56:41;7.30;;;1.65;;
44810;SDS011;30526;52.184;4.476;2023-04-25T04:59:08;8.90;;;1.25;;
44810;SDS011;30526;52.184;4.476;2023-04-25T05:01:34;8.13;;;1.60;;
44810;SDS011;30526;52.184;4.476;2023-04-25T05:04:00;6.68;;;1.58;;
44810;SDS011;30526;52.184;4.476;2023-04-25T05:06:27;4.13;;;1.17;;
44810;SDS011;30526;52.184;4.476;2023-04-25T05:08:57;11.38;;;1.50;;
44810;SDS011;30526;52.184;4.476;2023-04-25T05:11:23;5.00;;;0.98;;
44810;SDS011;30526;52.184;4.476;2023-04-25T05:13:51;8.93;;;1.40;;
44810;SDS011;30526;52.184;4.476;2023-04-25T05:18:43;5.10;;;1.25;;
44810;SDS011;30526;52.184;4.476;2023-04-25T05:21:09;6.75;;;1.33;;
44810;SDS011;30526;52.184;4.476;2023-04-25T05:23:35;7.35;;;1.08;;
44810;SDS011;30526;52.184;4.476;2023-04-25T05:26:01;11.35;;;1.30;;
44810;SDS011;30526;52.184;4.476;2023-04-25T05:28:27;6.57;;;1.95;;
44810;SDS011;30526;52.184;4.476;2023-04-25T05:30:53;9.65;;;1.35;;
44810;SDS011;30526;52.184;4.476;2023-04-25T05:33:19;8.88;;;1.67;;
44810;SDS011;30526;52.184;4.476;2023-04-25T05:35:45;8.65;;;1.50;;
44810;SDS011;30526;52.184;4.476;2023-04-25T05:38:11;15.32;;;1.50;;
44810;SDS011;30526;52.184;4.476;2023-04-25T05:40:37;8.93;;;1.30;;
